createdAt,value
2018-11-27T00:01:25.728Z,7.00
2018-11-27T00:03:59.838Z,7.00
2018-11-27T00:06:33.897Z,7.00
2018-11-27T00:09:08.713Z,6.80
2018-11-27T00:11:42.786Z,6.80
2018-11-27T00:14:16.855Z,6.90
2018-11-27T00:16:50.960Z,7.00
2018-11-27T00:19:24.977Z,7.10
2018-11-27T00:21:59.169Z,7.00
2018-11-27T00:24:33.297Z,7.00
2018-11-27T00:27:07.363Z,7.00
2018-11-27T00:29:41.408Z,6.90
2018-11-27T00:32:15.446Z,7.00
2018-11-27T00:34:49.551Z,7.00
2018-11-27T00:37:23.600Z,7.00
2018-11-27T00:39:57.638Z,6.80
2018-11-27T00:42:31.687Z,6.70
2018-11-27T00:45:08.074Z,6.70
2018-11-27T00:47:42.630Z,6.80
2018-11-27T00:50:18.749Z,6.80
2018-11-27T00:52:52.806Z,6.60
2018-11-27T00:55:26.851Z,6.60
2018-11-27T00:58:00.894Z,6.70
2018-11-27T01:00:34.971Z,6.80
2018-11-27T01:03:09.065Z,6.90
2018-11-27T01:05:43.097Z,6.90
2018-11-27T01:08:17.221Z,6.90
2018-11-27T01:10:51.249Z,6.90
2018-11-27T01:13:25.289Z,6.90
2018-11-27T01:15:59.422Z,6.90
2018-11-27T01:18:33.449Z,7.00
2018-11-27T01:21:07.577Z,7.00
2018-11-27T01:23:41.605Z,7.00
2018-11-27T01:26:15.666Z,7.00
2018-11-27T01:28:49.697Z,7.00
2018-11-27T01:31:23.754Z,7.00
2018-11-27T01:33:57.994Z,7.00
2018-11-27T01:36:32.102Z,7.00
2018-11-27T01:39:07.839Z,7.00
2018-11-27T01:41:42.030Z,7.00
2018-11-27T01:44:16.082Z,7.00
2018-11-27T01:46:50.234Z,6.90
2018-11-27T01:49:24.258Z,6.90
2018-11-27T01:51:58.329Z,7.00
2018-11-27T01:54:32.440Z,7.00
2018-11-27T01:57:06.869Z,6.90
2018-11-27T01:59:40.972Z,7.00
2018-11-27T02:02:15.039Z,7.00
2018-11-27T02:04:49.087Z,6.90
2018-11-27T02:07:23.341Z,6.90
2018-11-27T02:09:57.353Z,6.90
2018-11-27T02:12:31.436Z,6.80
2018-11-27T02:15:07.913Z,6.80
2018-11-27T02:17:41.995Z,6.70
2018-11-27T02:20:16.120Z,6.70
2018-11-27T02:22:50.219Z,6.70
2018-11-27T02:25:27.119Z,6.80
2018-11-27T02:28:01.349Z,6.80
2018-11-27T02:30:35.415Z,6.80
2018-11-27T02:33:09.459Z,6.80
2018-11-27T02:35:43.529Z,6.90
2018-11-27T02:38:17.610Z,6.80
2018-11-27T02:40:51.846Z,6.80
2018-11-27T02:43:25.881Z,6.80
2018-11-27T02:45:59.900Z,6.80
2018-11-27T02:48:38.122Z,6.70
2018-11-27T02:51:12.155Z,6.80
2018-11-27T02:53:46.201Z,6.70
2018-11-27T02:56:20.303Z,6.80
2018-11-27T02:58:54.341Z,6.80
2018-11-27T03:01:28.526Z,6.90
2018-11-27T03:04:02.556Z,6.80
2018-11-27T03:06:36.589Z,6.80
2018-11-27T03:09:10.631Z,6.60
2018-11-27T03:11:44.658Z,6.60
2018-11-27T03:14:18.751Z,6.70
2018-11-27T03:16:56.129Z,6.70
2018-11-27T03:19:30.170Z,6.80
2018-11-27T03:22:04.273Z,6.80
2018-11-27T03:24:38.301Z,6.90
2018-11-27T03:27:12.337Z,6.90
2018-11-27T03:29:46.384Z,6.90
2018-11-27T03:32:20.391Z,6.90
2018-11-27T03:34:54.635Z,6.80
2018-11-27T03:37:28.692Z,6.80
2018-11-27T03:40:02.763Z,6.80
2018-11-27T03:42:36.862Z,6.80
2018-11-27T03:45:12.261Z,6.80
2018-11-27T03:47:46.456Z,6.80
2018-11-27T03:50:24.672Z,6.70
2018-11-27T03:52:58.763Z,6.80
2018-11-27T03:55:32.854Z,6.80
2018-11-27T03:58:12.253Z,6.80
2018-11-27T04:00:46.310Z,6.70
2018-11-27T04:03:20.358Z,6.80
2018-11-27T04:05:54.460Z,6.80
2018-11-27T04:08:31.845Z,6.80
2018-11-27T04:11:05.891Z,6.90
2018-11-27T04:13:39.968Z,6.80
2018-11-27T04:16:13.977Z,6.80
2018-11-27T04:18:48.357Z,6.80
2018-11-27T04:23:46.656Z,6.90
2018-11-27T04:26:21.742Z,6.90
2018-11-27T04:28:55.839Z,6.80
2018-11-27T04:31:29.849Z,6.80
2018-11-27T04:34:03.930Z,6.80
2018-11-27T04:36:37.976Z,6.80
2018-11-27T04:39:12.013Z,6.80
2018-11-27T04:41:46.142Z,6.80
2018-11-27T04:44:20.139Z,6.80
2018-11-27T04:46:54.393Z,6.80
2018-11-27T04:49:28.419Z,6.80
2018-11-27T04:52:02.430Z,6.70
2018-11-27T04:54:36.433Z,6.70
2018-11-27T04:57:10.486Z,6.80
2018-11-27T04:59:44.704Z,6.70
2018-11-27T05:02:18.723Z,6.60
2018-11-27T05:04:52.745Z,6.60
2018-11-27T05:07:26.842Z,6.70
2018-11-27T05:10:00.926Z,6.70
2018-11-27T05:12:36.164Z,6.80
2018-11-27T05:15:26.721Z,6.80
2018-11-27T05:18:00.747Z,6.70
2018-11-27T05:20:34.746Z,6.80
2018-11-27T05:23:08.778Z,6.80
2018-11-27T05:25:42.769Z,6.70
2018-11-27T05:28:16.991Z,6.80
2018-11-27T05:30:50.985Z,6.80
2018-11-27T05:33:25.129Z,6.80
2018-11-27T05:35:59.211Z,6.70
2018-11-27T05:38:33.290Z,6.80
2018-11-27T05:41:07.438Z,6.80
2018-11-27T05:43:46.074Z,6.80
2018-11-27T05:46:15.853Z,6.90
2018-11-27T05:48:49.931Z,6.80
2018-11-27T05:51:23.958Z,6.90
2018-11-27T05:53:58.170Z,6.80
2018-11-27T05:56:32.204Z,6.70
2018-11-27T05:59:06.678Z,6.70
2018-11-27T06:01:40.727Z,6.80
2018-11-27T06:04:14.785Z,6.80
2018-11-27T06:06:48.837Z,6.80
2018-11-27T06:09:22.914Z,6.80
2018-11-27T06:11:57.073Z,6.70
2018-11-27T06:14:31.116Z,6.70
2018-11-27T06:17:05.960Z,6.80
2018-11-27T06:19:40.218Z,6.80
2018-11-27T06:22:14.329Z,6.80
2018-11-27T06:24:48.422Z,6.80
2018-11-27T06:27:22.454Z,6.80
2018-11-27T06:29:56.558Z,6.80
2018-11-27T06:32:30.622Z,6.80
2018-11-27T06:35:04.771Z,6.90
2018-11-27T06:37:38.833Z,6.80
2018-11-27T06:40:17.181Z,6.70
2018-11-27T06:42:52.898Z,6.70
2018-11-27T06:45:26.909Z,6.60
2018-11-27T06:48:00.975Z,6.50
2018-11-27T06:50:35.013Z,6.50
2018-11-27T06:53:09.049Z,6.40
2018-11-27T06:55:43.069Z,6.50
2018-11-27T06:58:17.069Z,6.30
2018-11-27T07:00:51.139Z,6.30
2018-11-27T07:03:25.134Z,6.20
2018-11-27T07:05:59.257Z,6.00
2018-11-27T07:08:33.258Z,6.00
2018-11-27T07:11:07.310Z,6.00
2018-11-27T07:13:41.309Z,6.00
2018-11-27T07:16:15.358Z,6.10
2018-11-27T07:18:49.634Z,6.10
2018-11-27T07:21:23.447Z,6.00
2018-11-27T07:23:57.450Z,6.00
2018-11-27T07:26:31.462Z,5.90
2018-11-27T07:29:05.560Z,6.00
2018-11-27T07:31:39.661Z,6.00
2018-11-27T07:34:13.678Z,5.90
2018-11-27T07:36:47.850Z,6.00
2018-11-27T07:39:21.845Z,5.90
2018-11-27T07:41:55.871Z,5.90
2018-11-27T07:44:29.937Z,5.80
2018-11-27T07:47:03.970Z,5.80
2018-11-27T07:49:38.137Z,5.80
2018-11-27T07:52:12.155Z,5.70
2018-11-27T07:54:48.250Z,5.80
2018-11-27T07:57:22.365Z,5.80
2018-11-27T07:59:56.395Z,6.00
2018-11-27T08:02:30.385Z,6.10
2018-11-27T08:05:04.765Z,6.10
2018-11-27T08:07:38.885Z,6.20
2018-11-27T08:10:15.186Z,6.20
2018-11-27T08:12:49.276Z,6.30
2018-11-27T08:15:26.292Z,6.30
2018-11-27T08:18:00.304Z,6.40
2018-11-27T08:20:35.011Z,6.40
2018-11-27T08:23:10.176Z,6.50
2018-11-27T08:25:44.269Z,6.50
2018-11-27T08:28:18.297Z,6.60
2018-11-27T08:30:52.293Z,6.60
2018-11-27T08:33:26.393Z,6.60
2018-11-27T08:36:00.446Z,6.50
2018-11-27T08:38:34.511Z,6.50
2018-11-27T08:41:08.528Z,6.60
2018-11-27T08:43:42.538Z,6.60
2018-11-27T08:46:16.553Z,6.60
2018-11-27T08:48:50.618Z,6.60
2018-11-27T08:51:24.726Z,6.60
2018-11-27T08:53:58.729Z,6.70
2018-11-27T08:56:32.764Z,6.60
2018-11-27T08:59:06.790Z,6.60
2018-11-27T09:01:40.805Z,6.60
2018-11-27T09:04:14.869Z,6.60
2018-11-27T09:06:48.974Z,6.60
2018-11-27T09:09:23.109Z,6.60
2018-11-27T09:11:57.141Z,6.40
2018-11-27T09:14:31.133Z,6.60
2018-11-27T09:17:05.455Z,6.60
2018-11-27T09:19:39.511Z,6.70
2018-11-27T09:22:13.544Z,6.70
2018-11-27T09:24:47.526Z,6.70
2018-11-27T09:27:21.527Z,6.70
2018-11-27T09:29:55.534Z,6.80
2018-11-27T09:32:29.552Z,6.80
2018-11-27T09:35:03.840Z,6.80
2018-11-27T09:37:37.975Z,6.80
2018-11-27T09:40:14.127Z,6.80
2018-11-27T09:42:48.284Z,6.80
2018-11-27T09:45:23.547Z,6.70
2018-11-27T09:47:58.283Z,6.60
2018-11-27T09:50:32.374Z,6.50
2018-11-27T09:53:08.645Z,6.50
2018-11-27T09:55:42.701Z,6.30
2018-11-27T09:58:16.849Z,6.30
2018-11-27T10:00:51.014Z,6.20
2018-11-27T10:03:25.146Z,6.20
2018-11-27T10:05:59.197Z,6.20
2018-11-27T10:08:33.263Z,6.20
2018-11-27T10:11:07.356Z,6.20
2018-11-27T10:13:41.489Z,6.30
2018-11-27T10:16:16.686Z,6.30
2018-11-27T10:18:50.950Z,6.10
2018-11-27T10:21:25.001Z,6.10
2018-11-27T10:23:59.095Z,6.20
2018-11-27T10:26:33.138Z,6.10
2018-11-27T10:29:07.246Z,6.10
2018-11-27T10:31:41.285Z,6.20
2018-11-27T10:34:15.353Z,6.20
2018-11-27T10:36:49.419Z,6.20
2018-11-27T10:39:23.779Z,6.10
2018-11-27T10:41:57.924Z,6.00
2018-11-27T10:44:31.958Z,6.10
2018-11-27T10:47:06.138Z,6.10
2018-11-27T10:49:40.406Z,6.10
2018-11-27T10:52:14.465Z,6.10
2018-11-27T10:54:48.567Z,6.10
2018-11-27T10:57:22.666Z,6.00
2018-11-27T10:59:56.703Z,5.90
2018-11-27T11:02:35.750Z,6.00
2018-11-27T11:05:09.905Z,6.10
2018-11-27T11:07:44.137Z,6.10
2018-11-27T11:10:18.413Z,6.50
2018-11-27T11:12:52.479Z,6.40
2018-11-27T11:15:26.760Z,6.40
2018-11-27T11:18:00.765Z,6.30
2018-11-27T11:20:34.846Z,6.40
2018-11-27T11:23:09.024Z,6.40
2018-11-27T11:25:43.066Z,6.40
2018-11-27T11:28:18.750Z,6.50
2018-11-27T11:30:52.857Z,6.30
2018-11-27T11:33:26.898Z,6.40
2018-11-27T11:36:00.914Z,6.40
2018-11-27T11:38:34.941Z,6.40
2018-11-27T11:41:08.957Z,6.30
2018-11-27T11:43:43.080Z,6.30
2018-11-27T11:46:17.064Z,6.30
2018-11-27T11:48:51.148Z,6.30
2018-11-27T11:51:25.140Z,6.20
2018-11-27T11:53:59.153Z,6.10
2018-11-27T11:56:33.179Z,6.20
2018-11-27T11:59:07.241Z,6.20
2018-11-27T12:01:41.359Z,6.20
2018-11-27T12:04:15.369Z,6.20
2018-11-27T12:06:49.354Z,6.20
2018-11-27T12:09:23.377Z,6.30
2018-11-27T12:11:57.392Z,6.20
2018-11-27T12:14:31.490Z,6.10
2018-11-27T12:17:05.764Z,6.10
2018-11-27T12:19:39.811Z,6.20
2018-11-27T12:22:13.825Z,6.20
2018-11-27T12:24:47.857Z,6.20
2018-11-27T12:27:21.939Z,6.10
2018-11-27T12:29:55.938Z,6.10
2018-11-27T12:32:30.027Z,6.20
2018-11-27T12:35:04.351Z,6.40
2018-11-27T12:37:38.468Z,6.40
2018-11-27T12:40:14.459Z,6.40
2018-11-27T12:42:48.587Z,6.50
2018-11-27T12:45:31.289Z,6.40
2018-11-27T12:48:05.365Z,6.40
2018-11-27T12:50:41.685Z,6.50
2018-11-27T12:53:17.231Z,6.50
2018-11-27T12:55:51.165Z,6.60
2018-11-27T12:58:25.154Z,6.50
2018-11-27T13:00:59.205Z,6.60
2018-11-27T13:03:33.217Z,6.60
2018-11-27T13:06:07.552Z,6.60
2018-11-27T13:08:41.551Z,6.60
2018-11-27T13:11:15.582Z,6.70
2018-11-27T13:13:49.626Z,6.70
2018-11-27T13:16:23.669Z,6.70
2018-11-27T13:18:57.748Z,6.80
2018-11-27T13:21:31.741Z,6.80
2018-11-27T13:24:06.114Z,6.80
2018-11-27T13:26:40.129Z,6.80
2018-11-27T13:29:14.133Z,6.80
2018-11-27T13:31:48.217Z,6.80
2018-11-27T13:34:22.258Z,6.90
2018-11-27T13:36:56.459Z,6.90
2018-11-27T13:39:36.721Z,6.90
2018-11-27T13:42:11.008Z,6.80
2018-11-27T13:44:45.229Z,6.80
2018-11-27T13:47:19.370Z,6.80
2018-11-27T13:49:53.398Z,6.80
2018-11-27T13:52:27.502Z,6.90
2018-11-27T13:55:01.699Z,7.00
2018-11-27T13:57:35.802Z,7.00
2018-11-27T14:00:14.882Z,7.00
2018-11-27T14:02:50.595Z,7.00
2018-11-27T14:05:25.652Z,7.00
2018-11-27T14:07:59.673Z,7.00
2018-11-27T14:10:33.827Z,7.10
2018-11-27T14:13:08.641Z,7.20
2018-11-27T14:15:42.702Z,7.10
2018-11-27T14:18:16.822Z,7.10
2018-11-27T14:20:50.852Z,7.20
2018-11-27T14:23:24.860Z,7.30
2018-11-27T14:25:58.892Z,7.20
2018-11-27T14:28:32.990Z,7.00
2018-11-27T14:31:07.045Z,6.90
2018-11-27T14:33:41.069Z,6.90
2018-11-27T14:36:15.174Z,6.80
2018-11-27T14:38:49.171Z,6.80
2018-11-27T14:41:23.295Z,6.80
2018-11-27T14:43:57.301Z,6.70
2018-11-27T14:46:31.311Z,6.70
2018-11-27T14:49:05.489Z,6.70
2018-11-27T14:51:39.537Z,6.70
2018-11-27T14:54:13.674Z,7.30
2018-11-27T14:56:47.693Z,7.10
2018-11-27T14:59:21.701Z,7.10
2018-11-27T15:01:55.877Z,7.10
2018-11-27T15:04:29.895Z,7.10
2018-11-27T15:07:03.965Z,7.20
2018-11-27T15:09:37.966Z,7.10
2018-11-27T15:12:12.039Z,7.20
2018-11-27T15:14:47.438Z,7.30
2018-11-27T15:17:21.479Z,7.30
2018-11-27T15:19:55.613Z,7.30
2018-11-27T15:22:30.683Z,7.30
2018-11-27T15:25:05.330Z,7.30
2018-11-27T15:27:39.478Z,7.30
2018-11-27T15:30:16.369Z,7.30
2018-11-27T15:32:51.148Z,7.30
2018-11-27T15:35:25.504Z,7.30
2018-11-27T15:37:59.557Z,7.30
2018-11-27T15:40:33.613Z,7.30
2018-11-27T15:43:07.822Z,7.30
2018-11-27T15:45:41.878Z,7.30
2018-11-27T15:48:16.147Z,7.10
2018-11-27T15:50:50.200Z,6.90
2018-11-27T15:53:24.277Z,7.00
2018-11-27T15:55:58.387Z,7.10
2018-11-27T15:58:32.518Z,7.20
2018-11-27T16:01:06.841Z,7.30
2018-11-27T16:03:40.906Z,7.20
2018-11-27T16:06:14.989Z,6.90
2018-11-27T16:08:49.410Z,6.90
2018-11-27T16:11:24.497Z,7.00
2018-11-27T16:13:58.657Z,7.10
2018-11-27T16:16:32.798Z,7.20
2018-11-27T16:19:06.954Z,7.20
2018-11-27T16:21:41.304Z,7.20
2018-11-27T16:24:15.349Z,7.30
2018-11-27T16:26:49.577Z,7.20
2018-11-27T16:29:23.665Z,7.10
2018-11-27T16:31:57.975Z,7.10
2018-11-27T16:34:32.263Z,7.10
2018-11-27T16:37:06.583Z,7.00
2018-11-27T16:39:40.749Z,7.10
2018-11-27T16:42:15.935Z,6.90
2018-11-27T16:44:49.921Z,6.80
2018-11-27T16:47:24.459Z,6.80
2018-11-27T16:49:59.276Z,7.00
2018-11-27T16:52:32.797Z,7.00
2018-11-27T16:55:08.305Z,7.10
2018-11-27T16:57:42.404Z,7.00
2018-11-27T17:00:22.494Z,7.10
2018-11-27T17:02:58.598Z,7.00
2018-11-27T17:05:36.267Z,7.10
2018-11-27T17:08:10.359Z,7.20
2018-11-27T17:10:44.963Z,7.20
2018-11-27T17:13:19.103Z,7.20
2018-11-27T17:15:53.180Z,7.20
2018-11-27T17:18:27.217Z,7.20
2018-11-27T17:21:01.281Z,7.20
2018-11-27T17:23:35.314Z,7.20
2018-11-27T17:26:09.453Z,7.20
2018-11-27T17:28:44.039Z,7.20
2018-11-27T17:31:18.086Z,7.20
2018-11-27T17:33:58.344Z,7.20
2018-11-27T17:36:32.558Z,7.20
2018-11-27T17:39:09.367Z,7.20
2018-11-27T17:41:43.447Z,7.20
2018-11-27T17:44:17.801Z,7.20
2018-11-27T17:46:51.931Z,7.20
2018-11-27T17:49:26.129Z,7.30
2018-11-27T17:52:00.210Z,7.30
2018-11-27T17:54:34.268Z,7.80
2018-11-27T17:57:08.530Z,7.60
2018-11-27T17:59:42.566Z,7.50
2018-11-27T18:02:16.665Z,7.50
2018-11-27T18:04:50.737Z,7.40
2018-11-27T18:07:24.913Z,7.30
2018-11-27T18:10:02.910Z,7.20
2018-11-27T18:12:37.105Z,7.10
2018-11-27T18:15:13.693Z,7.10
2018-11-27T18:17:47.741Z,7.10
2018-11-27T18:20:21.897Z,7.10
2018-11-27T18:22:55.941Z,7.10
2018-11-27T18:25:30.243Z,7.20
2018-11-27T18:28:04.338Z,7.30
2018-11-27T18:30:38.420Z,7.20
2018-11-27T18:33:14.626Z,7.50
2018-11-27T18:35:48.718Z,7.40
2018-11-27T18:38:22.781Z,7.40
2018-11-27T18:40:58.612Z,7.40
2018-11-27T18:43:33.102Z,7.30
2018-11-27T18:46:07.277Z,7.20
2018-11-27T18:48:41.612Z,7.10
2018-11-27T18:51:17.269Z,7.10
2018-11-27T18:53:54.938Z,7.10
2018-11-27T18:56:26.655Z,7.10
2018-11-27T18:59:00.718Z,7.10
2018-11-27T19:01:34.793Z,7.10
2018-11-27T19:04:08.830Z,7.20
2018-11-27T19:06:43.022Z,7.10
2018-11-27T19:09:17.094Z,7.10
2018-11-27T19:11:51.164Z,7.10
2018-11-27T19:14:25.377Z,7.10
2018-11-27T19:16:59.436Z,7.00
2018-11-27T19:19:33.819Z,7.00
2018-11-27T19:22:09.539Z,7.00
2018-11-27T19:24:44.077Z,7.00
2018-11-27T19:27:18.374Z,7.00
2018-11-27T19:29:52.702Z,7.00
2018-11-27T19:32:27.101Z,7.00
2018-11-27T19:35:01.575Z,7.10
2018-11-27T19:37:35.714Z,7.00
2018-11-27T19:40:15.708Z,7.10
2018-11-27T19:42:49.906Z,7.00
2018-11-27T19:45:25.640Z,7.00
2018-11-27T19:48:00.300Z,7.10
2018-11-27T19:50:34.503Z,7.00
2018-11-27T19:53:12.271Z,6.90
2018-11-27T19:55:44.582Z,6.90
2018-11-27T19:58:19.597Z,6.90
2018-11-27T20:00:53.692Z,6.80
2018-11-27T20:03:28.044Z,6.70
2018-11-27T20:06:02.402Z,6.70
2018-11-27T20:08:36.431Z,6.80
2018-11-27T20:11:11.259Z,6.80
2018-11-27T20:13:45.945Z,6.80
2018-11-27T20:16:20.377Z,6.80
2018-11-27T20:18:54.471Z,6.90
2018-11-27T20:21:28.690Z,6.90
2018-11-27T20:24:02.714Z,6.90
2018-11-27T20:26:36.867Z,6.90
2018-11-27T20:29:11.038Z,6.80
2018-11-27T20:31:45.334Z,6.80
2018-11-27T20:34:19.446Z,6.80
2018-11-27T20:36:53.681Z,6.80
2018-11-27T20:39:28.885Z,6.80
2018-11-27T20:42:02.961Z,6.90
2018-11-27T20:44:37.088Z,6.80
2018-11-27T20:47:11.129Z,6.90
2018-11-27T20:49:45.161Z,6.90
2018-11-27T20:52:19.326Z,6.80
2018-11-27T20:54:53.461Z,6.80
2018-11-27T20:57:27.561Z,6.80
2018-11-27T21:00:01.690Z,6.80
2018-11-27T21:02:35.749Z,6.90
2018-11-27T21:05:10.483Z,6.90
2018-11-27T21:07:44.605Z,6.90
2018-11-27T21:10:19.053Z,6.80
2018-11-27T21:12:53.208Z,6.80
2018-11-27T21:15:27.309Z,6.80
2018-11-27T21:18:01.494Z,6.90
2018-11-27T21:20:35.623Z,6.90
2018-11-27T21:23:09.887Z,6.90
2018-11-27T21:25:43.946Z,6.90
2018-11-27T21:28:18.945Z,6.90
2018-11-27T21:30:53.081Z,6.90
2018-11-27T21:33:27.191Z,6.90
2018-11-27T21:36:01.268Z,6.80
2018-11-27T21:38:35.309Z,6.90
2018-11-27T21:41:09.468Z,7.00
2018-11-27T21:43:43.681Z,7.00
2018-11-27T21:46:17.722Z,7.20
2018-11-27T21:48:51.763Z,7.00
2018-11-27T21:51:25.810Z,6.90
2018-11-27T21:53:59.886Z,6.80
2018-11-27T21:56:34.086Z,6.90
2018-11-27T21:59:08.165Z,6.90
2018-11-27T22:01:42.237Z,6.80
2018-11-27T22:04:16.314Z,6.80
2018-11-27T22:06:50.374Z,6.80
2018-11-27T22:09:24.452Z,6.70
2018-11-27T22:11:58.536Z,6.70
2018-11-27T22:14:32.694Z,6.70
2018-11-27T22:17:07.070Z,6.70
2018-11-27T22:19:41.101Z,6.70
2018-11-27T22:22:15.265Z,6.70
2018-11-27T22:24:49.302Z,6.60
2018-11-27T22:27:23.504Z,6.60
2018-11-27T22:29:57.573Z,6.60
2018-11-27T22:32:31.633Z,6.50
2018-11-27T22:35:06.463Z,6.50
2018-11-27T22:37:40.559Z,6.50
2018-11-27T22:40:15.834Z,6.50
2018-11-27T22:42:50.580Z,6.50
2018-11-27T22:45:26.156Z,6.50
2018-11-27T22:48:00.243Z,6.40
2018-11-27T22:50:34.306Z,6.40
2018-11-27T22:53:09.222Z,6.40
2018-11-27T22:55:43.285Z,6.20
2018-11-27T22:58:17.346Z,6.30
2018-11-27T23:00:51.820Z,6.20
2018-11-27T23:03:25.922Z,6.20
2018-11-27T23:05:59.956Z,6.10
2018-11-27T23:08:34.058Z,6.10
2018-11-27T23:11:08.094Z,6.10
2018-11-27T23:13:42.262Z,6.10
2018-11-27T23:16:16.339Z,6.10
2018-11-27T23:18:50.422Z,6.10
2018-11-27T23:21:24.630Z,6.10
2018-11-27T23:23:58.733Z,6.00
2018-11-27T23:26:32.840Z,6.00
2018-11-27T23:29:06.898Z,5.80
2018-11-27T23:31:41.026Z,5.70
2018-11-27T23:34:15.103Z,5.70
2018-11-27T23:36:49.187Z,5.60
2018-11-27T23:39:23.298Z,5.60
2018-11-27T23:41:57.357Z,5.60
2018-11-27T23:44:31.390Z,5.70
2018-11-27T23:47:05.862Z,5.60
2018-11-27T23:49:39.922Z,5.60
2018-11-27T23:52:14.088Z,5.40
2018-11-27T23:54:48.158Z,5.60
2018-11-27T23:57:22.205Z,5.80
2018-11-27T23:59:56.246Z,5.90
